sensor_id;sensor_type;location;lat;lon;timestamp;P1;durP1;ratioP1;P2;durP2;ratioP2
10410;SDS011;5251;52.112;8.606;2022-12-18T00:02:11;20.07;;;11.93;;
10410;SDS011;5251;52.112;8.606;2022-12-18T00:04:36;17.33;;;11.00;;
10410;SDS011;5251;52.112;8.606;2022-12-18T00:07:02;18.73;;;11.17;;
10410;SDS011;5251;52.112;8.606;2022-12-18T00:09:28;17.97;;;11.07;;
10410;SDS011;5251;52.112;8.606;2022-12-18T00:11:53;20.53;;;10.50;;
10410;SDS011;5251;52.112;8.606;2022-12-18T00:14:19;17.93;;;10.63;;
10410;SDS011;5251;52.112;8.606;2022-12-18T00:16:45;19.50;;;11.10;;
10410;SDS011;5251;52.112;8.606;2022-12-18T00:19:11;18.87;;;10.97;;
10410;SDS011;5251;52.112;8.606;2022-12-18T00:21:41;18.07;;;10.33;;
10410;SDS011;5251;52.112;8.606;2022-12-18T00:24:07;17.70;;;10.50;;
10410;SDS011;5251;52.112;8.606;2022-12-18T00:26:34;18.77;;;11.13;;
10410;SDS011;5251;52.112;8.606;2022-12-18T00:29:10;18.60;;;10.87;;
10410;SDS011;5251;52.112;8.606;2022-12-18T00:31:38;16.80;;;10.17;;
10410;SDS011;5251;52.112;8.606;2022-12-18T00:34:04;18.67;;;10.60;;
10410;SDS011;5251;52.112;8.606;2022-12-18T00:36:31;16.70;;;9.80;;
10410;SDS011;5251;52.112;8.606;2022-12-18T00:38:59;16.90;;;9.97;;
10410;SDS011;5251;52.112;8.606;2022-12-18T00:41:26;17.43;;;10.90;;
10410;SDS011;5251;52.112;8.606;2022-12-18T00:44:11;17.03;;;9.63;;
10410;SDS011;5251;52.112;8.606;2022-12-18T00:46:38;16.33;;;9.90;;
10410;SDS011;5251;52.112;8.606;2022-12-18T00:49:04;16.30;;;9.67;;
10410;SDS011;5251;52.112;8.606;2022-12-18T00:51:30;17.80;;;10.30;;
10410;SDS011;5251;52.112;8.606;2022-12-18T00:53:55;17.90;;;10.27;;
10410;SDS011;5251;52.112;8.606;2022-12-18T00:56:21;19.23;;;10.50;;
10410;SDS011;5251;52.112;8.606;2022-12-18T00:58:47;16.60;;;10.43;;
10410;SDS011;5251;52.112;8.606;2022-12-18T01:01:13;15.00;;;9.43;;
10410;SDS011;5251;52.112;8.606;2022-12-18T01:03:39;15.30;;;9.17;;
10410;SDS011;5251;52.112;8.606;2022-12-18T01:06:05;18.07;;;9.63;;
10410;SDS011;5251;52.112;8.606;2022-12-18T01:08:32;15.63;;;9.87;;
10410;SDS011;5251;52.112;8.606;2022-12-18T01:10:58;17.13;;;9.30;;
10410;SDS011;5251;52.112;8.606;2022-12-18T01:13:23;16.93;;;9.77;;
10410;SDS011;5251;52.112;8.606;2022-12-18T01:15:49;16.27;;;9.47;;
10410;SDS011;5251;52.112;8.606;2022-12-18T01:18:15;15.77;;;9.10;;
10410;SDS011;5251;52.112;8.606;2022-12-18T01:20:41;15.30;;;9.60;;
10410;SDS011;5251;52.112;8.606;2022-12-18T01:23:07;15.43;;;9.50;;
10410;SDS011;5251;52.112;8.606;2022-12-18T01:25:32;15.73;;;9.45;;
10410;SDS011;5251;52.112;8.606;2022-12-18T01:28:00;14.60;;;9.00;;
10410;SDS011;5251;52.112;8.606;2022-12-18T01:30:26;15.40;;;9.77;;
10410;SDS011;5251;52.112;8.606;2022-12-18T01:32:52;15.20;;;9.37;;
10410;SDS011;5251;52.112;8.606;2022-12-18T01:35:18;15.87;;;9.13;;
10410;SDS011;5251;52.112;8.606;2022-12-18T01:37:44;15.20;;;9.37;;
10410;SDS011;5251;52.112;8.606;2022-12-18T01:40:09;15.83;;;9.50;;
10410;SDS011;5251;52.112;8.606;2022-12-18T01:42:35;16.00;;;9.87;;
10410;SDS011;5251;52.112;8.606;2022-12-18T01:47:36;15.20;;;9.53;;
10410;SDS011;5251;52.112;8.606;2022-12-18T01:50:11;14.70;;;8.80;;
10410;SDS011;5251;52.112;8.606;2022-12-18T01:52:41;17.07;;;9.70;;
10410;SDS011;5251;52.112;8.606;2022-12-18T01:55:10;17.57;;;9.47;;
10410;SDS011;5251;52.112;8.606;2022-12-18T01:57:36;15.17;;;9.43;;
10410;SDS011;5251;52.112;8.606;2022-12-18T02:00:08;15.67;;;9.13;;
10410;SDS011;5251;52.112;8.606;2022-12-18T02:02:40;15.70;;;9.03;;
10410;SDS011;5251;52.112;8.606;2022-12-18T02:05:07;14.20;;;9.03;;
10410;SDS011;5251;52.112;8.606;2022-12-18T02:07:37;13.90;;;9.03;;
10410;SDS011;5251;52.112;8.606;2022-12-18T02:10:50;15.80;;;9.77;;
10410;SDS011;5251;52.112;8.606;2022-12-18T02:13:14;14.83;;;9.23;;
10410;SDS011;5251;52.112;8.606;2022-12-18T02:18:24;17.80;;;9.83;;
10410;SDS011;5251;52.112;8.606;2022-12-18T02:21:00;15.67;;;9.03;;
10410;SDS011;5251;52.112;8.606;2022-12-18T02:23:51;15.20;;;9.30;;
10410;SDS011;5251;52.112;8.606;2022-12-18T02:26:51;17.00;;;9.60;;
10410;SDS011;5251;52.112;8.606;2022-12-18T02:29:25;16.83;;;10.17;;
10410;SDS011;5251;52.112;8.606;2022-12-18T02:31:57;15.27;;;9.50;;
10410;SDS011;5251;52.112;8.606;2022-12-18T02:34:30;15.20;;;9.00;;
10410;SDS011;5251;52.112;8.606;2022-12-18T02:36:59;17.00;;;9.73;;
10410;SDS011;5251;52.112;8.606;2022-12-18T02:39:28;16.30;;;9.53;;
10410;SDS011;5251;52.112;8.606;2022-12-18T02:41:56;15.13;;;9.43;;
10410;SDS011;5251;52.112;8.606;2022-12-18T02:44:22;17.03;;;9.37;;
10410;SDS011;5251;52.112;8.606;2022-12-18T02:46:51;17.40;;;8.87;;
10410;SDS011;5251;52.112;8.606;2022-12-18T02:57:51;17.10;;;9.73;;
10410;SDS011;5251;52.112;8.606;2022-12-18T03:00:22;15.93;;;9.67;;
10410;SDS011;5251;52.112;8.606;2022-12-18T03:02:57;16.97;;;10.27;;
10410;SDS011;5251;52.112;8.606;2022-12-18T03:05:30;15.23;;;9.63;;
10410;SDS011;5251;52.112;8.606;2022-12-18T03:08:17;13.40;;;9.13;;
10410;SDS011;5251;52.112;8.606;2022-12-18T03:10:49;13.27;;;9.17;;
10410;SDS011;5251;52.112;8.606;2022-12-18T03:13:31;15.60;;;9.23;;
10410;SDS011;5251;52.112;8.606;2022-12-18T03:16:09;16.00;;;9.20;;
10410;SDS011;5251;52.112;8.606;2022-12-18T03:18:42;16.20;;;9.63;;
10410;SDS011;5251;52.112;8.606;2022-12-18T03:21:32;16.43;;;9.50;;
10410;SDS011;5251;52.112;8.606;2022-12-18T03:24:06;16.93;;;9.50;;
10410;SDS011;5251;52.112;8.606;2022-12-18T03:26:34;16.13;;;9.60;;
10410;SDS011;5251;52.112;8.606;2022-12-18T03:29:03;15.80;;;9.97;;
10410;SDS011;5251;52.112;8.606;2022-12-18T03:31:37;18.00;;;9.97;;
10410;SDS011;5251;52.112;8.606;2022-12-18T03:34:09;17.87;;;10.27;;
10410;SDS011;5251;52.112;8.606;2022-12-18T03:36:39;14.63;;;8.87;;
10410;SDS011;5251;52.112;8.606;2022-12-18T03:39:05;14.23;;;9.20;;
10410;SDS011;5251;52.112;8.606;2022-12-18T03:41:53;15.67;;;9.77;;
10410;SDS011;5251;52.112;8.606;2022-12-18T03:44:52;17.17;;;9.37;;
10410;SDS011;5251;52.112;8.606;2022-12-18T03:50:13;16.17;;;9.80;;
10410;SDS011;5251;52.112;8.606;2022-12-18T03:52:50;16.97;;;9.53;;
10410;SDS011;5251;52.112;8.606;2022-12-18T03:55:23;15.80;;;9.30;;
10410;SDS011;5251;52.112;8.606;2022-12-18T03:57:52;16.00;;;9.50;;
10410;SDS011;5251;52.112;8.606;2022-12-18T04:00:19;18.00;;;9.73;;
10410;SDS011;5251;52.112;8.606;2022-12-18T04:02:47;15.20;;;9.37;;
10410;SDS011;5251;52.112;8.606;2022-12-18T04:05:16;16.47;;;10.07;;
10410;SDS011;5251;52.112;8.606;2022-12-18T04:07:44;14.50;;;9.27;;
10410;SDS011;5251;52.112;8.606;2022-12-18T04:10:11;16.20;;;9.93;;
10410;SDS011;5251;52.112;8.606;2022-12-18T04:12:38;17.10;;;9.67;;
10410;SDS011;5251;52.112;8.606;2022-12-18T04:15:04;13.97;;;9.00;;
10410;SDS011;5251;52.112;8.606;2022-12-18T04:17:30;17.03;;;9.57;;
10410;SDS011;5251;52.112;8.606;2022-12-18T04:19:56;14.07;;;8.73;;
10410;SDS011;5251;52.112;8.606;2022-12-18T04:22:22;15.27;;;8.97;;
10410;SDS011;5251;52.112;8.606;2022-12-18T04:24:47;16.80;;;9.80;;
10410;SDS011;5251;52.112;8.606;2022-12-18T04:27:13;16.07;;;9.33;;
10410;SDS011;5251;52.112;8.606;2022-12-18T04:29:39;14.87;;;9.17;;
10410;SDS011;5251;52.112;8.606;2022-12-18T04:32:04;15.30;;;9.57;;
10410;SDS011;5251;52.112;8.606;2022-12-18T04:34:30;13.37;;;8.27;;
10410;SDS011;5251;52.112;8.606;2022-12-18T04:36:56;16.00;;;9.63;;
10410;SDS011;5251;52.112;8.606;2022-12-18T04:39:21;14.40;;;9.40;;
10410;SDS011;5251;52.112;8.606;2022-12-18T04:41:47;15.63;;;9.53;;
10410;SDS011;5251;52.112;8.606;2022-12-18T04:44:12;14.77;;;9.57;;
10410;SDS011;5251;52.112;8.606;2022-12-18T04:46:38;16.27;;;9.57;;
10410;SDS011;5251;52.112;8.606;2022-12-18T04:49:04;15.43;;;9.17;;
10410;SDS011;5251;52.112;8.606;2022-12-18T04:51:29;15.73;;;9.33;;
10410;SDS011;5251;52.112;8.606;2022-12-18T04:53:55;18.27;;;9.63;;
10410;SDS011;5251;52.112;8.606;2022-12-18T04:56:21;14.87;;;9.60;;
10410;SDS011;5251;52.112;8.606;2022-12-18T04:58:46;13.83;;;9.13;;
10410;SDS011;5251;52.112;8.606;2022-12-18T05:01:13;14.93;;;9.57;;
10410;SDS011;5251;52.112;8.606;2022-12-18T05:03:40;15.23;;;9.50;;
10410;SDS011;5251;52.112;8.606;2022-12-18T05:06:06;14.80;;;9.03;;
10410;SDS011;5251;52.112;8.606;2022-12-18T05:08:32;15.53;;;9.23;;
10410;SDS011;5251;52.112;8.606;2022-12-18T05:11:05;14.20;;;8.30;;
10410;SDS011;5251;52.112;8.606;2022-12-18T05:13:32;14.87;;;9.23;;
10410;SDS011;5251;52.112;8.606;2022-12-18T05:15:59;15.80;;;9.67;;
10410;SDS011;5251;52.112;8.606;2022-12-18T05:18:25;15.00;;;8.90;;
10410;SDS011;5251;52.112;8.606;2022-12-18T05:20:52;13.93;;;8.77;;
10410;SDS011;5251;52.112;8.606;2022-12-18T05:23:18;15.40;;;9.40;;
10410;SDS011;5251;52.112;8.606;2022-12-18T05:25:54;16.83;;;9.77;;
10410;SDS011;5251;52.112;8.606;2022-12-18T05:28:21;14.50;;;9.30;;
10410;SDS011;5251;52.112;8.606;2022-12-18T05:30:48;14.33;;;9.10;;
10410;SDS011;5251;52.112;8.606;2022-12-18T05:33:15;14.77;;;9.23;;
10410;SDS011;5251;52.112;8.606;2022-12-18T05:35:41;17.33;;;9.40;;
10410;SDS011;5251;52.112;8.606;2022-12-18T05:38:07;15.57;;;9.27;;
10410;SDS011;5251;52.112;8.606;2022-12-18T05:40:32;16.40;;;8.93;;
10410;SDS011;5251;52.112;8.606;2022-12-18T05:42:58;15.63;;;9.57;;
10410;SDS011;5251;52.112;8.606;2022-12-18T05:45:23;13.57;;;8.93;;
10410;SDS011;5251;52.112;8.606;2022-12-18T05:47:49;15.90;;;10.00;;
10410;SDS011;5251;52.112;8.606;2022-12-18T05:50:14;17.23;;;10.00;;
10410;SDS011;5251;52.112;8.606;2022-12-18T05:52:40;14.90;;;9.20;;
10410;SDS011;5251;52.112;8.606;2022-12-18T05:55:06;15.30;;;9.50;;
10410;SDS011;5251;52.112;8.606;2022-12-18T05:57:32;14.63;;;8.70;;
10410;SDS011;5251;52.112;8.606;2022-12-18T05:59:57;16.30;;;9.07;;
10410;SDS011;5251;52.112;8.606;2022-12-18T06:02:23;15.77;;;9.17;;
10410;SDS011;5251;52.112;8.606;2022-12-18T06:04:48;14.20;;;9.00;;
10410;SDS011;5251;52.112;8.606;2022-12-18T06:07:14;14.50;;;8.73;;
10410;SDS011;5251;52.112;8.606;2022-12-18T06:09:39;14.23;;;8.90;;
10410;SDS011;5251;52.112;8.606;2022-12-18T06:12:05;15.33;;;9.07;;
10410;SDS011;5251;52.112;8.606;2022-12-18T06:14:31;14.57;;;8.83;;
10410;SDS011;5251;52.112;8.606;2022-12-18T06:16:56;15.03;;;9.40;;
10410;SDS011;5251;52.112;8.606;2022-12-18T06:19:22;15.00;;;9.40;;
10410;SDS011;5251;52.112;8.606;2022-12-18T06:21:48;17.47;;;9.70;;
10410;SDS011;5251;52.112;8.606;2022-12-18T06:24:15;13.93;;;8.80;;
10410;SDS011;5251;52.112;8.606;2022-12-18T06:26:40;17.57;;;10.00;;
10410;SDS011;5251;52.112;8.606;2022-12-18T06:29:06;15.07;;;9.23;;
10410;SDS011;5251;52.112;8.606;2022-12-18T06:31:32;15.00;;;9.20;;
10410;SDS011;5251;52.112;8.606;2022-12-18T06:33:58;16.50;;;8.80;;
10410;SDS011;5251;52.112;8.606;2022-12-18T06:36:23;14.30;;;9.07;;
10410;SDS011;5251;52.112;8.606;2022-12-18T06:38:49;16.63;;;9.23;;
10410;SDS011;5251;52.112;8.606;2022-12-18T06:41:15;15.60;;;9.37;;
10410;SDS011;5251;52.112;8.606;2022-12-18T06:43:43;15.10;;;9.17;;
10410;SDS011;5251;52.112;8.606;2022-12-18T06:46:09;15.23;;;9.43;;
10410;SDS011;5251;52.112;8.606;2022-12-18T06:48:35;18.27;;;9.37;;
10410;SDS011;5251;52.112;8.606;2022-12-18T06:51:01;15.10;;;9.10;;
10410;SDS011;5251;52.112;8.606;2022-12-18T06:53:27;14.77;;;9.03;;
10410;SDS011;5251;52.112;8.606;2022-12-18T06:55:59;16.30;;;9.23;;
10410;SDS011;5251;52.112;8.606;2022-12-18T06:58:28;13.90;;;8.70;;
10410;SDS011;5251;52.112;8.606;2022-12-18T07:00:59;14.67;;;9.37;;
10410;SDS011;5251;52.112;8.606;2022-12-18T07:03:26;15.53;;;9.50;;
10410;SDS011;5251;52.112;8.606;2022-12-18T07:05:51;14.73;;;9.23;;
10410;SDS011;5251;52.112;8.606;2022-12-18T07:08:17;14.70;;;8.80;;
10410;SDS011;5251;52.112;8.606;2022-12-18T07:10:43;14.90;;;9.27;;
10410;SDS011;5251;52.112;8.606;2022-12-18T07:13:09;14.57;;;9.10;;
10410;SDS011;5251;52.112;8.606;2022-12-18T07:15:35;15.70;;;9.63;;
10410;SDS011;5251;52.112;8.606;2022-12-18T07:18:00;15.47;;;8.93;;
10410;SDS011;5251;52.112;8.606;2022-12-18T07:20:26;17.13;;;9.63;;
10410;SDS011;5251;52.112;8.606;2022-12-18T07:22:51;15.90;;;9.23;;
10410;SDS011;5251;52.112;8.606;2022-12-18T07:25:17;14.17;;;9.23;;
10410;SDS011;5251;52.112;8.606;2022-12-18T07:27:42;14.40;;;9.73;;
10410;SDS011;5251;52.112;8.606;2022-12-18T07:30:08;16.43;;;9.40;;
10410;SDS011;5251;52.112;8.606;2022-12-18T07:32:34;16.47;;;9.53;;
10410;SDS011;5251;52.112;8.606;2022-12-18T07:35:00;16.80;;;9.37;;
10410;SDS011;5251;52.112;8.606;2022-12-18T07:37:25;16.77;;;10.00;;
10410;SDS011;5251;52.112;8.606;2022-12-18T07:39:51;14.85;;;9.23;;
10410;SDS011;5251;52.112;8.606;2022-12-18T07:42:17;15.53;;;9.90;;
10410;SDS011;5251;52.112;8.606;2022-12-18T07:44:57;13.97;;;9.27;;
10410;SDS011;5251;52.112;8.606;2022-12-18T07:47:27;15.93;;;9.97;;
10410;SDS011;5251;52.112;8.606;2022-12-18T07:49:53;15.03;;;9.07;;
10410;SDS011;5251;52.112;8.606;2022-12-18T07:52:19;15.20;;;9.67;;
10410;SDS011;5251;52.112;8.606;2022-12-18T07:54:44;14.03;;;8.53;;
10410;SDS011;5251;52.112;8.606;2022-12-18T07:57:10;15.43;;;9.27;;
10410;SDS011;5251;52.112;8.606;2022-12-18T07:59:36;15.77;;;9.63;;
10410;SDS011;5251;52.112;8.606;2022-12-18T08:02:02;18.07;;;11.43;;
10410;SDS011;5251;52.112;8.606;2022-12-18T08:04:28;18.23;;;12.07;;
10410;SDS011;5251;52.112;8.606;2022-12-18T08:06:53;18.20;;;12.13;;
10410;SDS011;5251;52.112;8.606;2022-12-18T08:09:19;18.97;;;13.13;;
10410;SDS011;5251;52.112;8.606;2022-12-18T08:11:44;21.10;;;13.63;;
10410;SDS011;5251;52.112;8.606;2022-12-18T08:14:10;21.17;;;14.67;;
10410;SDS011;5251;52.112;8.606;2022-12-18T08:16:35;23.45;;;14.18;;
10410;SDS011;5251;52.112;8.606;2022-12-18T08:19:01;25.57;;;15.90;;
10410;SDS011;5251;52.112;8.606;2022-12-18T08:21:28;22.13;;;14.50;;
10410;SDS011;5251;52.112;8.606;2022-12-18T08:23:56;21.00;;;13.77;;
10410;SDS011;5251;52.112;8.606;2022-12-18T08:26:23;18.97;;;12.60;;
10410;SDS011;5251;52.112;8.606;2022-12-18T08:28:51;16.67;;;11.13;;
10410;SDS011;5251;52.112;8.606;2022-12-18T08:31:17;17.13;;;10.32;;
10410;SDS011;5251;52.112;8.606;2022-12-18T08:33:43;16.23;;;9.93;;
10410;SDS011;5251;52.112;8.606;2022-12-18T08:36:08;14.88;;;9.77;;
10410;SDS011;5251;52.112;8.606;2022-12-18T08:38:35;13.55;;;9.23;;
10410;SDS011;5251;52.112;8.606;2022-12-18T08:41:01;16.20;;;9.87;;
10410;SDS011;5251;52.112;8.606;2022-12-18T08:43:29;21.20;;;10.00;;
10410;SDS011;5251;52.112;8.606;2022-12-18T08:46:17;14.65;;;9.48;;
10410;SDS011;5251;52.112;8.606;2022-12-18T08:48:43;15.68;;;9.70;;
10410;SDS011;5251;52.112;8.606;2022-12-18T08:51:09;13.60;;;8.68;;
10410;SDS011;5251;52.112;8.606;2022-12-18T08:53:35;13.30;;;8.73;;
10410;SDS011;5251;52.112;8.606;2022-12-18T08:56:01;14.50;;;8.88;;
10410;SDS011;5251;52.112;8.606;2022-12-18T08:58:27;13.52;;;8.25;;
10410;SDS011;5251;52.112;8.606;2022-12-18T09:00:53;16.70;;;9.13;;
10410;SDS011;5251;52.112;8.606;2022-12-18T09:03:19;13.18;;;8.73;;
10410;SDS011;5251;52.112;8.606;2022-12-18T09:05:47;16.20;;;9.73;;
10410;SDS011;5251;52.112;8.606;2022-12-18T09:08:13;14.05;;;8.40;;
10410;SDS011;5251;52.112;8.606;2022-12-18T09:10:42;18.58;;;9.40;;
10410;SDS011;5251;52.112;8.606;2022-12-18T09:13:10;14.80;;;9.27;;
10410;SDS011;5251;52.112;8.606;2022-12-18T09:16:09;16.90;;;9.90;;
10410;SDS011;5251;52.112;8.606;2022-12-18T09:18:28;13.27;;;8.93;;
10410;SDS011;5251;52.112;8.606;2022-12-18T09:20:53;13.88;;;9.27;;
10410;SDS011;5251;52.112;8.606;2022-12-18T09:23:19;14.88;;;9.00;;
10410;SDS011;5251;52.112;8.606;2022-12-18T09:25:46;14.10;;;8.88;;
10410;SDS011;5251;52.112;8.606;2022-12-18T09:28:18;12.52;;;8.52;;
10410;SDS011;5251;52.112;8.606;2022-12-18T09:30:48;13.20;;;8.55;;
10410;SDS011;5251;52.112;8.606;2022-12-18T09:33:14;15.27;;;8.90;;
10410;SDS011;5251;52.112;8.606;2022-12-18T09:35:41;13.82;;;8.10;;
10410;SDS011;5251;52.112;8.606;2022-12-18T09:38:08;13.98;;;8.75;;
10410;SDS011;5251;52.112;8.606;2022-12-18T09:40:53;13.10;;;9.02;;
10410;SDS011;5251;52.112;8.606;2022-12-18T09:43:30;13.73;;;8.63;;
10410;SDS011;5251;52.112;8.606;2022-12-18T09:46:03;13.13;;;8.18;;
10410;SDS011;5251;52.112;8.606;2022-12-18T09:48:38;12.65;;;8.27;;
10410;SDS011;5251;52.112;8.606;2022-12-18T09:51:15;12.63;;;7.80;;
10410;SDS011;5251;52.112;8.606;2022-12-18T09:53:55;13.10;;;7.78;;
10410;SDS011;5251;52.112;8.606;2022-12-18T09:56:25;14.40;;;8.50;;
10410;SDS011;5251;52.112;8.606;2022-12-18T09:59:03;12.00;;;7.95;;
10410;SDS011;5251;52.112;8.606;2022-12-18T10:01:30;12.32;;;7.78;;
10410;SDS011;5251;52.112;8.606;2022-12-18T10:03:57;11.27;;;7.38;;
10410;SDS011;5251;52.112;8.606;2022-12-18T10:12:15;10.75;;;7.43;;
10410;SDS011;5251;52.112;8.606;2022-12-18T10:14:51;10.35;;;7.13;;
10410;SDS011;5251;52.112;8.606;2022-12-18T10:17:34;10.32;;;6.82;;
10410;SDS011;5251;52.112;8.606;2022-12-18T10:20:56;11.63;;;7.60;;
10410;SDS011;5251;52.112;8.606;2022-12-18T10:26:07;12.60;;;7.32;;
10410;SDS011;5251;52.112;8.606;2022-12-18T10:28:38;12.77;;;6.88;;
10410;SDS011;5251;52.112;8.606;2022-12-18T10:31:05;13.38;;;7.40;;
10410;SDS011;5251;52.112;8.606;2022-12-18T10:33:32;9.65;;;6.85;;
10410;SDS011;5251;52.112;8.606;2022-12-18T10:35:58;11.90;;;7.07;;
10410;SDS011;5251;52.112;8.606;2022-12-18T10:38:26;9.32;;;6.03;;
10410;SDS011;5251;52.112;8.606;2022-12-18T10:43:40;10.20;;;6.78;;
10410;SDS011;5251;52.112;8.606;2022-12-18T10:51:46;9.82;;;6.35;;
10410;SDS011;5251;52.112;8.606;2022-12-18T10:54:05;10.75;;;5.82;;
10410;SDS011;5251;52.112;8.606;2022-12-18T10:56:39;8.95;;;6.03;;
10410;SDS011;5251;52.112;8.606;2022-12-18T10:59:08;8.77;;;6.20;;
10410;SDS011;5251;52.112;8.606;2022-12-18T11:01:56;9.38;;;6.05;;
10410;SDS011;5251;52.112;8.606;2022-12-18T11:04:26;9.45;;;5.93;;
10410;SDS011;5251;52.112;8.606;2022-12-18T11:09:37;7.75;;;5.68;;
10410;SDS011;5251;52.112;8.606;2022-12-18T11:12:08;10.82;;;6.18;;
10410;SDS011;5251;52.112;8.606;2022-12-18T11:17:33;10.20;;;6.05;;
10410;SDS011;5251;52.112;8.606;2022-12-18T11:20:03;8.27;;;5.80;;
10410;SDS011;5251;52.112;8.606;2022-12-18T11:22:32;10.27;;;6.05;;
10410;SDS011;5251;52.112;8.606;2022-12-18T11:25:00;8.05;;;5.55;;
10410;SDS011;5251;52.112;8.606;2022-12-18T11:27:36;9.63;;;5.80;;
10410;SDS011;5251;52.112;8.606;2022-12-18T11:30:45;9.43;;;6.07;;
10410;SDS011;5251;52.112;8.606;2022-12-18T11:33:05;11.50;;;6.13;;
10410;SDS011;5251;52.112;8.606;2022-12-18T11:35:37;10.23;;;5.82;;
10410;SDS011;5251;52.112;8.606;2022-12-18T11:40:39;9.48;;;5.60;;
10410;SDS011;5251;52.112;8.606;2022-12-18T11:45:51;10.60;;;6.03;;
10410;SDS011;5251;52.112;8.606;2022-12-18T11:48:24;9.05;;;5.75;;
10410;SDS011;5251;52.112;8.606;2022-12-18T11:50:56;8.52;;;5.32;;
10410;SDS011;5251;52.112;8.606;2022-12-18T11:53:24;8.45;;;5.47;;
10410;SDS011;5251;52.112;8.606;2022-12-18T12:07:51;9.40;;;6.10;;
10410;SDS011;5251;52.112;8.606;2022-12-18T12:10:41;8.00;;;5.70;;
10410;SDS011;5251;52.112;8.606;2022-12-18T12:21:43;8.93;;;6.07;;
10410;SDS011;5251;52.112;8.606;2022-12-18T12:24:37;8.90;;;5.82;;
10410;SDS011;5251;52.112;8.606;2022-12-18T12:30:02;9.05;;;5.80;;
10410;SDS011;5251;52.112;8.606;2022-12-18T12:38:06;10.10;;;5.85;;
10410;SDS011;5251;52.112;8.606;2022-12-18T12:41:00;9.95;;;5.50;;
10410;SDS011;5251;52.112;8.606;2022-12-18T12:46:09;8.13;;;5.95;;
10410;SDS011;5251;52.112;8.606;2022-12-18T12:51:21;7.75;;;5.30;;
10410;SDS011;5251;52.112;8.606;2022-12-18T12:53:56;8.68;;;5.70;;
10410;SDS011;5251;52.112;8.606;2022-12-18T12:56:24;9.88;;;6.03;;
10410;SDS011;5251;52.112;8.606;2022-12-18T13:01:52;8.30;;;5.47;;
10410;SDS011;5251;52.112;8.606;2022-12-18T13:04:44;8.77;;;5.50;;
10410;SDS011;5251;52.112;8.606;2022-12-18T13:07:26;8.13;;;5.53;;
10410;SDS011;5251;52.112;8.606;2022-12-18T13:20:36;6.80;;;4.93;;
10410;SDS011;5251;52.112;8.606;2022-12-18T13:23:29;6.43;;;5.03;;
10410;SDS011;5251;52.112;8.606;2022-12-18T13:30:59;9.10;;;5.15;;
10410;SDS011;5251;52.112;8.606;2022-12-18T13:39:08;10.55;;;5.50;;
10410;SDS011;5251;52.112;8.606;2022-12-18T13:41:36;7.68;;;5.13;;
10410;SDS011;5251;52.112;8.606;2022-12-18T13:46:49;8.15;;;5.05;;
10410;SDS011;5251;52.112;8.606;2022-12-18T13:55:05;7.30;;;4.75;;
10410;SDS011;5251;52.112;8.606;2022-12-18T13:57:39;6.90;;;4.63;;
10410;SDS011;5251;52.112;8.606;2022-12-18T14:00:25;6.78;;;5.25;;
10410;SDS011;5251;52.112;8.606;2022-12-18T14:02:53;7.40;;;5.30;;
10410;SDS011;5251;52.112;8.606;2022-12-18T14:05:21;8.75;;;5.20;;
10410;SDS011;5251;52.112;8.606;2022-12-18T14:07:47;9.18;;;5.60;;
10410;SDS011;5251;52.112;8.606;2022-12-18T14:10:13;6.72;;;4.72;;
10410;SDS011;5251;52.112;8.606;2022-12-18T14:12:44;6.88;;;5.13;;
10410;SDS011;5251;52.112;8.606;2022-12-18T14:17:52;7.53;;;4.75;;
10410;SDS011;5251;52.112;8.606;2022-12-18T14:20:22;7.47;;;4.80;;
10410;SDS011;5251;52.112;8.606;2022-12-18T14:22:49;8.68;;;5.15;;
10410;SDS011;5251;52.112;8.606;2022-12-18T14:25:16;8.27;;;5.00;;
10410;SDS011;5251;52.112;8.606;2022-12-18T14:27:45;8.00;;;4.95;;
10410;SDS011;5251;52.112;8.606;2022-12-18T14:35:30;6.72;;;4.65;;
10410;SDS011;5251;52.112;8.606;2022-12-18T14:40:45;7.55;;;4.80;;
10410;SDS011;5251;52.112;8.606;2022-12-18T14:43:10;7.20;;;4.90;;
10410;SDS011;5251;52.112;8.606;2022-12-18T14:45:41;6.43;;;4.80;;
10410;SDS011;5251;52.112;8.606;2022-12-18T14:50:40;8.40;;;4.75;;
10410;SDS011;5251;52.112;8.606;2022-12-18T14:56:03;7.47;;;5.00;;
10410;SDS011;5251;52.112;8.606;2022-12-18T14:58:44;7.22;;;4.97;;
10410;SDS011;5251;52.112;8.606;2022-12-18T15:01:25;7.90;;;5.00;;
10410;SDS011;5251;52.112;8.606;2022-12-18T15:04:02;7.13;;;4.95;;
10410;SDS011;5251;52.112;8.606;2022-12-18T15:06:36;8.05;;;5.45;;
10410;SDS011;5251;52.112;8.606;2022-12-18T15:09:22;7.75;;;5.20;;
10410;SDS011;5251;52.112;8.606;2022-12-18T15:11:49;7.03;;;4.90;;
10410;SDS011;5251;52.112;8.606;2022-12-18T15:16:55;7.15;;;4.90;;
10410;SDS011;5251;52.112;8.606;2022-12-18T15:19:27;8.68;;;5.32;;
10410;SDS011;5251;52.112;8.606;2022-12-18T15:25:20;8.35;;;5.68;;
10410;SDS011;5251;52.112;8.606;2022-12-18T15:28:16;8.13;;;4.88;;
10410;SDS011;5251;52.112;8.606;2022-12-18T15:33:46;8.00;;;5.20;;
10410;SDS011;5251;52.112;8.606;2022-12-18T15:36:28;7.40;;;4.78;;
10410;SDS011;5251;52.112;8.606;2022-12-18T15:38:55;7.35;;;5.10;;
10410;SDS011;5251;52.112;8.606;2022-12-18T15:41:22;9.00;;;5.43;;
10410;SDS011;5251;52.112;8.606;2022-12-18T15:43:49;7.90;;;5.20;;
10410;SDS011;5251;52.112;8.606;2022-12-18T15:46:17;10.57;;;7.00;;
10410;SDS011;5251;52.112;8.606;2022-12-18T15:48:45;9.30;;;7.22;;
10410;SDS011;5251;52.112;8.606;2022-12-18T15:51:19;8.43;;;5.72;;
10410;SDS011;5251;52.112;8.606;2022-12-18T15:53:48;8.35;;;5.00;;
10410;SDS011;5251;52.112;8.606;2022-12-18T15:56:16;8.23;;;5.85;;
10410;SDS011;5251;52.112;8.606;2022-12-18T15:59:00;8.77;;;5.03;;
10410;SDS011;5251;52.112;8.606;2022-12-18T16:01:28;8.65;;;5.65;;
10410;SDS011;5251;52.112;8.606;2022-12-18T16:03:56;8.60;;;5.35;;
10410;SDS011;5251;52.112;8.606;2022-12-18T16:06:22;10.10;;;5.60;;
10410;SDS011;5251;52.112;8.606;2022-12-18T16:08:48;8.70;;;6.03;;
10410;SDS011;5251;52.112;8.606;2022-12-18T16:11:27;7.40;;;5.75;;
10410;SDS011;5251;52.112;8.606;2022-12-18T16:14:04;8.68;;;6.30;;
10410;SDS011;5251;52.112;8.606;2022-12-18T16:16:31;8.32;;;5.38;;
10410;SDS011;5251;52.112;8.606;2022-12-18T16:18:56;11.65;;;6.38;;
10410;SDS011;5251;52.112;8.606;2022-12-18T16:21:22;8.45;;;5.40;;
10410;SDS011;5251;52.112;8.606;2022-12-18T16:23:47;8.93;;;6.15;;
10410;SDS011;5251;52.112;8.606;2022-12-18T16:26:13;10.32;;;7.10;;
10410;SDS011;5251;52.112;8.606;2022-12-18T16:28:39;9.45;;;6.72;;
10410;SDS011;5251;52.112;8.606;2022-12-18T16:31:04;9.63;;;5.97;;
10410;SDS011;5251;52.112;8.606;2022-12-18T16:33:30;9.45;;;6.63;;
10410;SDS011;5251;52.112;8.606;2022-12-18T16:35:55;14.68;;;8.88;;
10410;SDS011;5251;52.112;8.606;2022-12-18T16:38:21;9.57;;;6.28;;
10410;SDS011;5251;52.112;8.606;2022-12-18T16:40:47;9.60;;;6.47;;
10410;SDS011;5251;52.112;8.606;2022-12-18T16:43:31;8.98;;;5.93;;
10410;SDS011;5251;52.112;8.606;2022-12-18T16:45:58;9.30;;;6.28;;
10410;SDS011;5251;52.112;8.606;2022-12-18T16:48:24;10.63;;;8.23;;
10410;SDS011;5251;52.112;8.606;2022-12-18T16:50:49;11.10;;;7.60;;
10410;SDS011;5251;52.112;8.606;2022-12-18T16:53:21;9.57;;;6.10;;
10410;SDS011;5251;52.112;8.606;2022-12-18T16:55:53;9.75;;;6.20;;
10410;SDS011;5251;52.112;8.606;2022-12-18T16:58:20;9.18;;;6.30;;
10410;SDS011;5251;52.112;8.606;2022-12-18T17:00:45;9.85;;;6.65;;
10410;SDS011;5251;52.112;8.606;2022-12-18T17:03:14;9.60;;;7.10;;
10410;SDS011;5251;52.112;8.606;2022-12-18T17:05:39;10.32;;;7.15;;
10410;SDS011;5251;52.112;8.606;2022-12-18T17:08:05;11.48;;;7.20;;
10410;SDS011;5251;52.112;8.606;2022-12-18T17:10:31;10.30;;;7.18;;
10410;SDS011;5251;52.112;8.606;2022-12-18T17:12:59;9.68;;;6.60;;
10410;SDS011;5251;52.112;8.606;2022-12-18T17:15:25;9.73;;;6.32;;
10410;SDS011;5251;52.112;8.606;2022-12-18T17:17:50;12.45;;;7.10;;
10410;SDS011;5251;52.112;8.606;2022-12-18T17:20:16;10.05;;;7.00;;
10410;SDS011;5251;52.112;8.606;2022-12-18T17:22:41;9.45;;;6.45;;